createdAt,value
2018-03-30T00:01:56.933Z,35.38
2018-03-30T00:04:23.557Z,35.97
2018-03-30T00:06:50.150Z,46.97
2018-03-30T00:09:22.565Z,42.20
2018-03-30T00:11:49.172Z,35.45
2018-03-30T00:14:15.785Z,35.70
2018-03-30T00:16:42.388Z,34.53
2018-03-30T00:19:08.979Z,42.45
2018-03-30T00:21:35.592Z,32.08
2018-03-30T00:24:02.200Z,33.20
2018-03-30T00:26:28.816Z,37.83
2018-03-30T00:28:55.406Z,43.20
2018-03-30T00:31:22.372Z,59.15
2018-03-30T00:33:48.979Z,41.20
2018-03-30T00:36:15.565Z,71.30
2018-03-30T00:38:42.165Z,60.80
2018-03-30T00:41:08.755Z,55.47
2018-03-30T00:43:35.349Z,51.20
2018-03-30T00:46:01.972Z,54.78
2018-03-30T00:48:28.569Z,69.82
2018-03-30T00:50:55.180Z,49.80
2018-03-30T00:53:27.592Z,53.95
2018-03-30T00:55:54.199Z,44.05
2018-03-30T00:58:20.791Z,62.60
2018-03-30T01:00:47.386Z,57.22
2018-03-30T01:03:14.004Z,68.40
2018-03-30T01:05:40.616Z,53.13
2018-03-30T01:08:07.224Z,48.63
2018-03-30T01:10:33.857Z,57.60
2018-03-30T01:13:00.464Z,41.83
2018-03-30T01:15:27.054Z,58.38
2018-03-30T01:17:53.664Z,82.53
2018-03-30T01:20:20.272Z,47.45
2018-03-30T01:22:46.890Z,57.55
2018-03-30T01:25:13.485Z,44.97
2018-03-30T01:27:40.100Z,68.00
2018-03-30T01:30:06.712Z,51.75
2018-03-30T01:32:33.314Z,50.80
2018-03-30T01:35:00.623Z,56.25
2018-03-30T01:37:27.217Z,46.78
2018-03-30T01:39:53.827Z,63.42
2018-03-30T01:42:20.441Z,49.30
2018-03-30T01:44:47.038Z,49.65
2018-03-30T01:47:13.643Z,73.93
2018-03-30T01:49:40.252Z,82.35
2018-03-30T01:52:06.842Z,74.03
2018-03-30T01:54:33.464Z,74.45
2018-03-30T01:57:00.073Z,72.68
2018-03-30T01:59:26.721Z,68.82
2018-03-30T02:01:53.314Z,69.07
2018-03-30T02:04:19.917Z,60.53
2018-03-30T02:06:46.513Z,60.72
2018-03-30T02:09:13.124Z,74.43
2018-03-30T02:11:39.736Z,82.93
2018-03-30T02:14:06.345Z,86.00
2018-03-30T02:16:32.949Z,91.37
2018-03-30T02:18:59.564Z,77.40
2018-03-30T02:21:26.168Z,98.97
2018-03-30T02:23:52.771Z,71.10
2018-03-30T02:26:19.372Z,86.50
2018-03-30T02:28:45.977Z,123.40
2018-03-30T02:31:12.578Z,78.12
2018-03-30T02:33:39.201Z,54.13
2018-03-30T02:36:05.804Z,59.22
2018-03-30T02:38:32.418Z,61.88
2018-03-30T02:40:59.014Z,64.43
2018-03-30T02:43:25.609Z,77.97
2018-03-30T02:45:52.219Z,59.00
2018-03-30T02:48:18.833Z,63.38
2018-03-30T02:50:45.443Z,89.25
2018-03-30T02:53:12.038Z,88.10
2018-03-30T02:55:38.630Z,78.53
2018-03-30T02:58:05.255Z,87.65
2018-03-30T03:00:31.880Z,79.62
2018-03-30T03:02:58.499Z,118.82
2018-03-30T03:05:25.091Z,90.22
2018-03-30T03:07:51.707Z,100.25
2018-03-30T03:10:18.630Z,90.05
2018-03-30T03:12:45.210Z,74.07
2018-03-30T03:15:11.820Z,99.82
2018-03-30T03:17:38.422Z,100.18
2018-03-30T03:20:05.018Z,92.18
2018-03-30T03:22:31.613Z,69.82
2018-03-30T03:24:58.209Z,91.37
2018-03-30T03:27:24.836Z,73.90
2018-03-30T03:29:51.447Z,103.25
2018-03-30T03:32:18.065Z,69.60
2018-03-30T03:34:44.670Z,62.90
2018-03-30T03:37:11.267Z,62.10
2018-03-30T03:39:37.884Z,52.80
2018-03-30T03:42:04.500Z,76.60
2018-03-30T03:44:31.098Z,59.78
2018-03-30T03:46:57.698Z,70.82
2018-03-30T03:49:24.317Z,73.90
2018-03-30T03:51:50.949Z,56.78
2018-03-30T03:54:17.564Z,48.28
2018-03-30T03:56:44.162Z,52.58
2018-03-30T03:59:10.776Z,55.20
2018-03-30T04:01:37.439Z,58.67
2018-03-30T04:04:04.058Z,61.13
2018-03-30T04:06:30.655Z,48.67
2018-03-30T04:08:57.272Z,57.40
2018-03-30T04:11:23.872Z,62.38
2018-03-30T04:13:50.480Z,65.93
2018-03-30T04:16:17.088Z,56.88
2018-03-30T04:18:43.685Z,43.03
2018-03-30T04:21:10.297Z,62.67
2018-03-30T04:23:36.905Z,55.97
2018-03-30T04:26:03.497Z,58.70
2018-03-30T04:28:30.108Z,56.50
2018-03-30T04:30:56.821Z,48.30
2018-03-30T04:33:23.427Z,78.32
2018-03-30T04:35:50.034Z,45.00
2018-03-30T04:38:16.662Z,79.72
2018-03-30T04:40:43.273Z,65.50
2018-03-30T04:43:09.889Z,64.70
2018-03-30T04:45:36.610Z,65.05
2018-03-30T04:48:03.218Z,56.60
2018-03-30T04:50:29.824Z,45.03
2018-03-30T04:52:56.509Z,38.15
2018-03-30T04:55:23.270Z,42.78
2018-03-30T04:57:49.876Z,38.75
2018-03-30T05:00:16.566Z,38.72
2018-03-30T05:02:43.181Z,34.63
2018-03-30T05:05:09.778Z,32.92
2018-03-30T05:07:36.442Z,37.97
2018-03-30T05:10:03.041Z,23.67
2018-03-30T05:12:29.646Z,38.60
2018-03-30T05:14:56.274Z,31.75
2018-03-30T05:17:22.865Z,38.42
2018-03-30T05:19:49.476Z,31.70
2018-03-30T05:22:16.147Z,38.20
2018-03-30T05:24:42.744Z,34.15
2018-03-30T05:27:09.344Z,35.30
2018-03-30T05:29:35.934Z,41.47
2018-03-30T05:32:02.556Z,39.45
2018-03-30T05:34:29.208Z,42.72
2018-03-30T05:36:55.770Z,37.97
2018-03-30T05:39:22.395Z,50.42
2018-03-30T05:41:49.004Z,49.22
2018-03-30T05:44:15.612Z,37.83
2018-03-30T05:46:42.232Z,45.20
2018-03-30T05:49:08.836Z,46.83
2018-03-30T05:51:35.449Z,63.25
2018-03-30T05:54:02.151Z,56.95
2018-03-30T05:56:29.108Z,47.55
2018-03-30T05:58:55.702Z,58.60
2018-03-30T06:01:22.298Z,48.53
2018-03-30T06:03:48.901Z,51.08
2018-03-30T06:06:15.508Z,53.67
2018-03-30T06:08:42.750Z,44.80
2018-03-30T06:11:15.274Z,44.42
2018-03-30T06:16:19.326Z,49.65
2018-03-30T06:18:46.826Z,43.45
2018-03-30T06:21:13.459Z,39.28
2018-03-30T06:23:40.056Z,68.97
2018-03-30T06:26:06.668Z,61.67
2018-03-30T06:28:33.291Z,59.70
2018-03-30T06:30:59.896Z,57.72
2018-03-30T06:33:26.506Z,51.83
2018-03-30T06:35:53.123Z,60.03
2018-03-30T06:38:19.799Z,46.25
2018-03-30T06:40:47.582Z,59.70
2018-03-30T06:43:14.406Z,44.90
2018-03-30T06:45:41.013Z,52.95
2018-03-30T06:48:07.610Z,39.75
2018-03-30T06:50:34.224Z,38.97
2018-03-30T06:53:00.909Z,31.98
2018-03-30T06:55:27.511Z,36.25
2018-03-30T06:57:54.128Z,46.13
2018-03-30T07:00:20.728Z,38.33
2018-03-30T07:02:47.333Z,35.42
2018-03-30T07:05:13.948Z,34.78
2018-03-30T07:07:40.558Z,30.83
2018-03-30T07:10:07.165Z,39.78
2018-03-30T07:12:33.766Z,44.25
2018-03-30T07:15:00.361Z,29.55
2018-03-30T07:17:26.980Z,34.95
2018-03-30T07:19:53.584Z,29.58
2018-03-30T07:22:20.171Z,21.33
2018-03-30T07:24:46.793Z,27.02
2018-03-30T07:27:13.425Z,24.25
2018-03-30T07:29:40.517Z,24.52
2018-03-30T07:32:07.558Z,24.33
2018-03-30T07:34:34.794Z,22.60
2018-03-30T07:37:01.396Z,28.90
2018-03-30T07:39:28.006Z,32.78
2018-03-30T07:41:54.656Z,27.50
2018-03-30T07:44:21.243Z,26.42
2018-03-30T07:46:47.860Z,31.90
2018-03-30T07:49:14.461Z,28.90
2018-03-30T07:51:41.076Z,35.45
2018-03-30T07:54:07.674Z,32.28
2018-03-30T07:56:34.297Z,36.85
2018-03-30T07:59:00.905Z,39.15
2018-03-30T08:01:27.501Z,30.67
2018-03-30T08:03:54.108Z,30.95
2018-03-30T08:06:20.714Z,26.33
2018-03-30T08:08:55.212Z,23.10
2018-03-30T08:11:25.272Z,28.02
2018-03-30T08:13:56.059Z,28.40
2018-03-30T08:16:25.663Z,29.63
2018-03-30T08:18:52.781Z,25.50
2018-03-30T08:21:19.391Z,31.33
2018-03-30T08:23:46.060Z,25.90
2018-03-30T08:26:12.731Z,17.37
2018-03-30T08:28:39.410Z,12.50
2018-03-30T08:31:06.018Z,9.38
2018-03-30T08:33:32.620Z,6.65
2018-03-30T08:35:59.209Z,7.53
2018-03-30T08:38:25.802Z,6.80
2018-03-30T08:40:52.622Z,7.25
2018-03-30T08:43:19.224Z,6.68
2018-03-30T08:45:45.824Z,5.37
2018-03-30T08:48:12.443Z,5.35
2018-03-30T08:50:39.038Z,9.23
2018-03-30T08:53:05.658Z,5.40
2018-03-30T08:55:32.304Z,8.93
2018-03-30T08:57:59.102Z,9.75
2018-03-30T09:00:25.706Z,7.62
2018-03-30T09:02:52.306Z,9.00
2018-03-30T09:05:18.921Z,5.00
2018-03-30T09:07:45.548Z,6.97
2018-03-30T09:10:12.123Z,5.18
2018-03-30T09:12:38.723Z,3.55
2018-03-30T09:15:05.310Z,6.87
2018-03-30T09:17:31.919Z,8.77
2018-03-30T09:19:58.537Z,8.55
2018-03-30T09:22:25.175Z,5.65
2018-03-30T09:24:51.801Z,7.32
2018-03-30T09:27:18.495Z,4.75
2018-03-30T09:29:50.936Z,14.40
2018-03-30T09:32:18.018Z,15.60
2018-03-30T09:34:44.797Z,5.10
2018-03-30T09:37:11.389Z,4.22
2018-03-30T09:39:37.991Z,6.05
2018-03-30T09:42:04.599Z,5.10
2018-03-30T09:44:31.297Z,6.03
2018-03-30T09:46:57.919Z,7.35
2018-03-30T09:49:24.514Z,8.05
2018-03-30T09:51:51.324Z,11.10
2018-03-30T09:54:17.904Z,7.50
2018-03-30T09:56:44.530Z,5.93
2018-03-30T09:59:11.130Z,5.15
2018-03-30T10:01:37.727Z,9.20
2018-03-30T10:04:04.318Z,12.10
2018-03-30T10:06:30.915Z,11.18
2018-03-30T10:08:57.514Z,6.40
2018-03-30T10:11:24.120Z,9.23
2018-03-30T10:13:50.734Z,6.75
2018-03-30T10:16:17.447Z,22.58
2018-03-30T10:18:44.054Z,8.10
2018-03-30T10:21:10.660Z,10.00
2018-03-30T10:23:37.266Z,12.00
2018-03-30T10:26:03.866Z,11.05
2018-03-30T10:28:30.456Z,7.25
2018-03-30T10:30:57.061Z,16.35
2018-03-30T10:33:23.670Z,7.35
2018-03-30T10:35:51.228Z,5.93
2018-03-30T10:38:17.871Z,8.43
2018-03-30T10:40:44.456Z,7.15
2018-03-30T10:43:11.056Z,5.60
2018-03-30T10:45:37.646Z,14.30
2018-03-30T10:48:04.263Z,7.43
2018-03-30T10:50:30.849Z,8.70
2018-03-30T10:52:57.486Z,7.50
2018-03-30T10:55:24.100Z,7.32
2018-03-30T10:57:50.698Z,9.73
2018-03-30T11:00:17.819Z,7.57
2018-03-30T11:02:44.441Z,8.55
2018-03-30T11:05:11.062Z,6.82
2018-03-30T11:07:37.694Z,6.90
2018-03-30T11:10:04.294Z,9.68
2018-03-30T11:12:30.896Z,7.47
2018-03-30T11:14:57.504Z,10.98
2018-03-30T11:17:24.112Z,6.90
2018-03-30T11:19:50.711Z,18.17
2018-03-30T11:22:17.312Z,8.57
2018-03-30T11:24:43.962Z,9.18
2018-03-30T11:27:10.556Z,9.75
2018-03-30T11:29:37.172Z,8.15
2018-03-30T11:32:03.758Z,9.25
2018-03-30T11:34:30.423Z,10.23
2018-03-30T11:36:57.006Z,8.02
2018-03-30T11:39:23.611Z,7.00
2018-03-30T11:41:50.241Z,6.70
2018-03-30T11:44:16.934Z,8.60
2018-03-30T11:46:43.521Z,10.10
2018-03-30T11:49:10.114Z,7.57
2018-03-30T11:51:36.888Z,8.10
2018-03-30T11:54:03.497Z,6.43
2018-03-30T11:56:30.096Z,9.68
2018-03-30T11:58:56.904Z,18.73
2018-03-30T12:01:23.537Z,26.37
2018-03-30T12:03:50.154Z,9.32
2018-03-30T12:06:16.854Z,9.70
2018-03-30T12:08:43.501Z,8.80
2018-03-30T12:11:10.091Z,9.05
2018-03-30T12:13:37.744Z,7.10
2018-03-30T12:16:04.420Z,8.27
2018-03-30T12:18:31.032Z,7.72
2018-03-30T12:20:58.451Z,9.07
2018-03-30T12:23:25.050Z,12.07
2018-03-30T12:25:51.643Z,13.35
2018-03-30T12:28:18.251Z,9.52
2018-03-30T12:30:44.855Z,13.43
2018-03-30T12:33:11.464Z,7.47
2018-03-30T12:35:38.066Z,8.95
2018-03-30T12:38:04.734Z,6.62
2018-03-30T12:40:31.327Z,9.73
2018-03-30T12:42:57.940Z,6.18
2018-03-30T12:45:24.531Z,7.07
2018-03-30T12:47:51.129Z,8.88
2018-03-30T12:50:17.726Z,11.27
2018-03-30T12:52:44.324Z,7.40
2018-03-30T12:55:10.926Z,14.68
2018-03-30T12:57:37.549Z,6.12
2018-03-30T13:00:04.137Z,5.07
2018-03-30T13:02:31.036Z,4.60
2018-03-30T13:04:57.664Z,4.55
2018-03-30T13:07:24.257Z,13.75
2018-03-30T13:09:50.846Z,4.80
2018-03-30T13:12:17.540Z,5.95
2018-03-30T13:14:44.149Z,5.50
2018-03-30T13:17:10.752Z,5.03
2018-03-30T13:19:37.351Z,5.05
2018-03-30T13:22:03.958Z,4.37
2018-03-30T13:24:30.569Z,4.30
2018-03-30T13:26:57.259Z,6.25
2018-03-30T13:29:23.849Z,4.10
2018-03-30T13:31:50.668Z,4.43
2018-03-30T13:34:17.268Z,6.18
2018-03-30T13:36:43.898Z,3.08
2018-03-30T13:39:10.501Z,4.90
2018-03-30T13:41:37.107Z,4.40
2018-03-30T13:44:04.818Z,4.32
2018-03-30T13:46:40.820Z,6.87
2018-03-30T13:49:07.425Z,5.30
2018-03-30T13:51:35.836Z,6.10
2018-03-30T13:54:05.110Z,7.80
2018-03-30T13:56:42.387Z,3.75
2018-03-30T13:59:18.904Z,3.87
2018-03-30T14:01:46.390Z,6.50
2018-03-30T14:04:13.947Z,12.32
2018-03-30T14:06:43.086Z,3.72
2018-03-30T14:09:09.947Z,7.97
2018-03-30T14:11:39.428Z,4.10
2018-03-30T14:14:06.170Z,3.42
2018-03-30T14:16:33.784Z,5.15
2018-03-30T14:19:17.081Z,3.87
2018-03-30T14:21:43.687Z,4.75
2018-03-30T14:24:11.161Z,4.05
2018-03-30T14:26:37.775Z,2.60
2018-03-30T14:29:10.165Z,7.68
2018-03-30T14:31:36.804Z,2.97
2018-03-30T14:34:06.275Z,3.17
2018-03-30T14:36:43.482Z,2.35
2018-03-30T14:39:25.869Z,4.80
2018-03-30T14:41:52.472Z,3.80
2018-03-30T14:44:19.878Z,2.85
2018-03-30T14:46:46.496Z,4.25
2018-03-30T14:49:13.650Z,2.78
2018-03-30T14:51:44.029Z,5.60
2018-03-30T14:54:14.369Z,7.72
2018-03-30T14:56:44.750Z,3.85
2018-03-30T14:59:27.100Z,3.70
2018-03-30T15:01:55.505Z,3.20
2018-03-30T15:04:25.052Z,3.15
2018-03-30T15:06:53.388Z,3.53
2018-03-30T15:09:24.856Z,3.15
2018-03-30T15:11:58.274Z,2.28
2018-03-30T15:14:26.426Z,2.47
2018-03-30T15:16:53.009Z,3.55
2018-03-30T15:19:20.312Z,2.05
2018-03-30T15:21:49.786Z,6.15
2018-03-30T15:24:16.749Z,3.20
2018-03-30T15:26:59.840Z,5.82
2018-03-30T15:29:30.170Z,4.55
2018-03-30T15:32:08.356Z,3.20
2018-03-30T15:34:36.910Z,19.73
2018-03-30T15:37:08.115Z,4.57
2018-03-30T15:39:34.724Z,13.02
2018-03-30T15:42:01.959Z,4.22
2018-03-30T15:44:28.569Z,9.65
2018-03-30T15:46:56.002Z,3.90
2018-03-30T15:49:22.590Z,4.80
2018-03-30T15:51:49.197Z,6.12
2018-03-30T15:54:15.649Z,5.37
2018-03-30T15:56:42.245Z,4.70
2018-03-30T15:59:08.895Z,3.65
2018-03-30T16:01:35.566Z,5.90
2018-03-30T16:04:02.158Z,5.90
2018-03-30T16:06:28.774Z,4.53
2018-03-30T16:08:55.594Z,5.70
2018-03-30T16:11:37.085Z,5.50
2018-03-30T16:14:03.707Z,3.90
2018-03-30T16:16:30.333Z,23.17
2018-03-30T16:18:56.761Z,4.53
2018-03-30T16:21:23.207Z,5.90
2018-03-30T16:23:52.235Z,5.12
2018-03-30T16:26:21.153Z,6.72
2018-03-30T16:28:49.913Z,5.32
2018-03-30T16:33:58.098Z,5.12
2018-03-30T16:36:25.084Z,5.80
2018-03-30T16:38:53.019Z,5.20
2018-03-30T16:41:20.287Z,4.93
2018-03-30T16:43:48.366Z,9.60
2018-03-30T16:46:15.739Z,5.32
2018-03-30T16:48:42.107Z,10.50
2018-03-30T16:51:08.503Z,5.40
2018-03-30T16:53:34.891Z,4.10
2018-03-30T16:56:01.257Z,3.42
2018-03-30T16:58:27.631Z,5.55
2018-03-30T17:00:56.047Z,4.80
2018-03-30T17:03:26.439Z,4.30
2018-03-30T17:05:52.790Z,5.60
2018-03-30T17:08:35.084Z,5.03
2018-03-30T17:11:03.991Z,6.00
2018-03-30T17:16:23.791Z,4.90
2018-03-30T17:18:50.655Z,9.15
2018-03-30T17:21:18.432Z,4.50
2018-03-30T17:23:44.794Z,6.18
2018-03-30T17:26:11.161Z,6.45
2018-03-30T17:28:37.650Z,8.18
2018-03-30T17:31:11.138Z,5.35
2018-03-30T17:33:37.503Z,6.50
2018-03-30T17:36:03.869Z,7.10
2018-03-30T17:38:30.222Z,7.70
2018-03-30T17:40:56.596Z,4.93
2018-03-30T17:43:22.954Z,7.85
2018-03-30T17:45:49.305Z,7.03
2018-03-30T17:48:15.718Z,6.10
2018-03-30T17:50:42.082Z,7.15
2018-03-30T17:53:08.440Z,9.77
2018-03-30T17:55:34.810Z,7.57
2018-03-30T17:58:01.193Z,10.15
2018-03-30T18:00:27.587Z,8.20
2018-03-30T18:02:54.048Z,8.82
2018-03-30T18:05:20.434Z,9.10
2018-03-30T18:07:46.785Z,8.88
2018-03-30T18:10:13.145Z,6.60
2018-03-30T18:12:39.505Z,10.02
2018-03-30T18:15:05.910Z,11.88
2018-03-30T18:17:32.258Z,7.35
2018-03-30T18:19:58.630Z,9.07
2018-03-30T18:22:26.229Z,11.80
2018-03-30T18:24:56.565Z,12.35
2018-03-30T18:27:22.940Z,10.68
2018-03-30T18:29:49.290Z,9.48
2018-03-30T18:32:15.642Z,10.15
2018-03-30T18:34:42.019Z,12.35
2018-03-30T18:37:08.408Z,11.05
2018-03-30T18:39:34.788Z,11.57
2018-03-30T18:42:01.139Z,9.13
2018-03-30T18:44:27.513Z,9.15
2018-03-30T18:46:53.866Z,16.65
2018-03-30T18:49:20.274Z,12.90
2018-03-30T18:51:46.795Z,13.05
2018-03-30T18:54:13.180Z,13.13
2018-03-30T18:56:39.549Z,12.90
2018-03-30T18:59:05.907Z,18.40
2018-03-30T19:01:32.279Z,13.25
2018-03-30T19:03:58.647Z,12.27
2018-03-30T19:06:25.013Z,9.35
2018-03-30T19:08:51.366Z,10.10
2018-03-30T19:11:17.734Z,12.55
2018-03-30T19:13:44.108Z,15.63
2018-03-30T19:16:10.463Z,9.23
2018-03-30T19:18:36.908Z,11.77
2018-03-30T19:21:03.263Z,9.43
2018-03-30T19:23:29.626Z,9.50
2018-03-30T19:25:56.011Z,10.45
2018-03-30T19:28:22.368Z,15.02
2018-03-30T19:30:48.743Z,14.90
2018-03-30T19:33:15.128Z,12.65
2018-03-30T19:35:41.545Z,12.93
2018-03-30T19:38:07.877Z,13.02
2018-03-30T19:40:34.240Z,17.02
2018-03-30T19:43:00.598Z,12.10
2018-03-30T19:45:26.959Z,11.48
2018-03-30T19:47:54.256Z,8.77
2018-03-30T19:50:20.628Z,12.85
2018-03-30T19:52:46.990Z,10.73
2018-03-30T19:55:13.350Z,12.73
2018-03-30T19:57:39.717Z,11.43
2018-03-30T20:00:06.088Z,9.73
2018-03-30T20:02:32.469Z,14.52
2018-03-30T20:04:58.826Z,14.07
2018-03-30T20:07:25.217Z,11.00
2018-03-30T20:09:51.628Z,10.57
2018-03-30T20:12:17.993Z,15.52
2018-03-30T20:14:44.374Z,11.55
2018-03-30T20:17:10.746Z,12.20
2018-03-30T20:19:37.201Z,11.68
2018-03-30T20:22:03.565Z,9.30
2018-03-30T20:24:30.979Z,12.43
2018-03-30T20:26:57.339Z,15.35
2018-03-30T20:29:23.705Z,14.05
2018-03-30T20:31:50.083Z,11.02
2018-03-30T20:34:16.514Z,11.57
2018-03-30T20:36:42.898Z,9.88
2018-03-30T20:39:09.255Z,14.70
2018-03-30T20:41:35.618Z,17.92
2018-03-30T20:44:01.978Z,12.85
2018-03-30T20:46:28.382Z,13.88
2018-03-30T20:48:54.745Z,13.93
2018-03-30T20:51:21.117Z,14.13
2018-03-30T20:53:47.490Z,12.13
2018-03-30T20:56:14.934Z,14.00
2018-03-30T20:58:41.379Z,12.40
2018-03-30T21:01:07.820Z,17.70
2018-03-30T21:03:34.176Z,14.20
2018-03-30T21:06:00.542Z,11.10
2018-03-30T21:08:26.985Z,13.43
2018-03-30T21:10:53.292Z,8.50
2018-03-30T21:13:19.662Z,7.05
2018-03-30T21:15:46.017Z,9.35
2018-03-30T21:18:12.384Z,8.63
2018-03-30T21:20:38.782Z,11.20
2018-03-30T21:23:05.139Z,12.25
2018-03-30T21:25:31.512Z,13.00
2018-03-30T21:27:58.353Z,13.82
2018-03-30T21:30:24.778Z,11.12
2018-03-30T21:32:51.199Z,10.05
2018-03-30T21:35:18.203Z,10.98
2018-03-30T21:37:44.572Z,7.62
2018-03-30T21:40:10.949Z,11.85
2018-03-30T21:42:37.338Z,8.13
2018-03-30T21:45:04.314Z,7.32
2018-03-30T21:47:30.678Z,9.52
2018-03-30T21:49:57.037Z,9.20
2018-03-30T21:52:23.409Z,9.82
2018-03-30T21:54:49.758Z,7.15
2018-03-30T21:57:16.186Z,18.02
2018-03-30T21:59:42.747Z,16.73
2018-03-30T22:02:09.123Z,12.75
2018-03-30T22:04:35.507Z,10.05
2018-03-30T22:07:01.889Z,16.00
2018-03-30T22:09:28.268Z,11.90
2018-03-30T22:11:54.628Z,14.23
2018-03-30T22:14:20.981Z,22.50
2018-03-30T22:16:47.356Z,19.42
2018-03-30T22:19:13.733Z,16.52
2018-03-30T22:21:40.097Z,21.95
2018-03-30T22:24:06.469Z,23.98
2018-03-30T22:26:32.821Z,21.45
2018-03-30T22:28:59.218Z,22.20
2018-03-30T22:31:25.574Z,21.42
2018-03-30T22:33:51.950Z,15.82
2018-03-30T22:36:18.320Z,18.05
2018-03-30T22:38:44.695Z,17.48
2018-03-30T22:41:11.077Z,19.20
2018-03-30T22:43:37.435Z,14.38
2018-03-30T22:46:03.808Z,16.80
2018-03-30T22:48:30.181Z,25.27
2018-03-30T22:50:58.177Z,22.37
2018-03-30T22:53:24.538Z,18.00
2018-03-30T22:55:50.905Z,14.23
2018-03-30T22:58:17.271Z,21.67
2018-03-30T23:00:43.651Z,18.90
2018-03-30T23:03:10.027Z,13.65
2018-03-30T23:05:36.393Z,24.40
2018-03-30T23:08:02.824Z,21.30
2018-03-30T23:10:29.141Z,19.48
2018-03-30T23:12:55.517Z,18.90
2018-03-30T23:15:21.871Z,9.50
2018-03-30T23:17:48.230Z,16.12
2018-03-30T23:20:14.613Z,18.35
2018-03-30T23:22:40.987Z,18.17
2018-03-30T23:25:07.365Z,17.60
2018-03-30T23:27:33.732Z,32.05
2018-03-30T23:30:00.107Z,12.60
2018-03-30T23:32:26.487Z,22.70
2018-03-30T23:34:52.853Z,20.20
2018-03-30T23:37:19.241Z,17.67
2018-03-30T23:39:45.609Z,14.75
2018-03-30T23:42:11.962Z,18.12
2018-03-30T23:44:38.340Z,16.65
2018-03-30T23:47:04.715Z,16.25
2018-03-30T23:49:31.088Z,18.67
2018-03-30T23:51:57.461Z,17.85
2018-03-30T23:54:23.844Z,22.48
2018-03-30T23:56:50.208Z,13.40
2018-03-30T23:59:16.672Z,23.15
